createdAt,value
2019-05-26T00:01:32.895Z,39.90
2019-05-26T00:04:06.998Z,41.60
2019-05-26T00:06:41.117Z,40.08
2019-05-26T00:09:12.765Z,41.70
2019-05-26T00:11:45.850Z,40.52
2019-05-26T00:14:19.160Z,38.20
2019-05-26T00:16:53.050Z,38.40
2019-05-26T00:19:24.604Z,37.80
2019-05-26T00:21:58.201Z,37.05
2019-05-26T00:24:33.932Z,36.75
2019-05-26T00:27:05.914Z,35.83
2019-05-26T00:29:41.457Z,37.10
2019-05-26T00:32:14.548Z,35.48
2019-05-26T00:34:46.328Z,34.67
2019-05-26T00:37:19.395Z,36.50
2019-05-26T00:39:51.140Z,34.58
2019-05-26T00:42:22.919Z,34.80
2019-05-26T00:44:55.553Z,35.48
2019-05-26T00:47:28.102Z,34.88
2019-05-26T00:50:00.378Z,35.78
2019-05-26T00:52:33.954Z,34.00
2019-05-26T00:55:09.143Z,32.17
2019-05-26T00:57:41.634Z,33.20
2019-05-26T01:00:18.703Z,34.38
2019-05-26T01:02:50.476Z,34.38
2019-05-26T01:05:23.050Z,34.58
2019-05-26T01:08:05.807Z,35.08
2019-05-26T01:10:27.446Z,34.25
2019-05-26T01:13:01.703Z,40.10
2019-05-26T01:15:34.055Z,40.78
2019-05-26T01:18:06.805Z,42.33
2019-05-26T01:20:37.982Z,45.25
2019-05-26T01:23:11.594Z,46.15
2019-05-26T01:25:43.962Z,42.80
2019-05-26T01:28:17.811Z,43.35
2019-05-26T01:30:50.152Z,39.00
2019-05-26T01:33:21.692Z,38.75
2019-05-26T01:35:54.770Z,39.00
2019-05-26T01:38:26.587Z,37.50
2019-05-26T01:40:57.949Z,39.35
2019-05-26T01:43:31.163Z,35.98
2019-05-26T01:46:03.242Z,34.78
2019-05-26T01:48:34.698Z,33.78
2019-05-26T01:51:08.703Z,34.63
2019-05-26T01:53:41.476Z,35.60
2019-05-26T01:56:13.340Z,37.30
2019-05-26T02:01:20.434Z,41.23
2019-05-26T02:03:52.605Z,41.37
2019-05-26T02:06:27.027Z,40.73
2019-05-26T02:08:58.454Z,38.08
2019-05-26T02:11:33.022Z,39.38
2019-05-26T02:14:06.265Z,37.00
2019-05-26T02:16:37.729Z,37.08
2019-05-26T02:19:09.950Z,39.18
2019-05-26T02:21:42.896Z,39.25
2019-05-26T02:24:14.639Z,36.55
2019-05-26T02:26:48.049Z,37.40
2019-05-26T02:29:20.946Z,39.40
2019-05-26T02:31:52.587Z,39.33
2019-05-26T02:34:24.229Z,38.08
2019-05-26T02:36:55.977Z,38.90
2019-05-26T02:39:27.737Z,39.78
2019-05-26T02:41:59.622Z,42.00
2019-05-26T02:44:34.931Z,44.00
2019-05-26T02:47:06.803Z,47.43
2019-05-26T02:49:39.678Z,52.40
2019-05-26T02:52:14.810Z,53.28
2019-05-26T02:54:46.245Z,55.80
2019-05-26T02:57:20.274Z,58.58
2019-05-26T02:59:53.153Z,57.95
2019-05-26T03:02:28.186Z,46.15
2019-05-26T03:04:59.944Z,46.65
2019-05-26T03:07:33.783Z,47.65
2019-05-26T03:10:07.450Z,47.93
2019-05-26T03:12:42.385Z,55.03
2019-05-26T03:17:47.774Z,53.55
2019-05-26T03:20:20.623Z,52.40
2019-05-26T03:22:56.887Z,49.95
2019-05-26T03:25:29.945Z,52.27
2019-05-26T03:28:02.798Z,53.38
2019-05-26T03:30:35.166Z,50.48
2019-05-26T03:33:11.482Z,53.33
2019-05-26T03:35:43.042Z,52.48
2019-05-26T03:38:16.345Z,54.35
2019-05-26T03:40:47.858Z,52.03
2019-05-26T03:43:19.929Z,48.55
2019-05-26T03:46:04.397Z,50.08
2019-05-26T03:48:37.074Z,52.33
2019-05-26T03:51:11.047Z,48.52
2019-05-26T03:53:42.497Z,42.55
2019-05-26T03:56:16.134Z,33.08
2019-05-26T03:58:48.201Z,31.00
2019-05-26T04:01:20.084Z,28.00
2019-05-26T04:03:51.942Z,27.62
2019-05-26T04:06:25.450Z,27.58
2019-05-26T04:08:57.589Z,25.97
2019-05-26T04:11:31.380Z,30.48
2019-05-26T04:14:04.590Z,34.03
2019-05-26T04:19:09.524Z,41.88
2019-05-26T04:21:43.223Z,37.95
2019-05-26T04:24:16.311Z,38.13
2019-05-26T04:26:51.850Z,37.58
2019-05-26T04:29:23.615Z,35.83
2019-05-26T04:32:01.844Z,38.75
2019-05-26T04:34:32.220Z,36.10
2019-05-26T04:37:05.642Z,32.70
2019-05-26T04:39:38.225Z,33.42
2019-05-26T04:42:09.733Z,29.18
2019-05-26T04:44:41.567Z,27.95
2019-05-26T04:47:14.347Z,29.92
2019-05-26T04:49:46.065Z,29.20
2019-05-26T04:52:19.535Z,28.70
2019-05-26T04:54:53.154Z,29.12
2019-05-26T04:57:25.422Z,23.92
2019-05-26T04:59:56.763Z,23.30
2019-05-26T05:02:29.142Z,23.77
2019-05-26T05:05:00.686Z,20.57
2019-05-26T05:07:32.689Z,19.23
2019-05-26T05:10:05.993Z,19.45
2019-05-26T05:12:39.167Z,17.87
2019-05-26T05:17:44.536Z,15.98
2019-05-26T05:20:16.248Z,17.17
2019-05-26T05:22:49.322Z,17.23
2019-05-26T05:25:20.990Z,19.52
2019-05-26T05:27:56.540Z,18.30
2019-05-26T05:30:30.752Z,16.90
2019-05-26T05:33:02.290Z,16.10
2019-05-26T05:35:37.991Z,12.35
2019-05-26T05:40:58.281Z,13.72
2019-05-26T05:43:16.192Z,12.70
2019-05-26T05:45:50.183Z,12.70
2019-05-26T05:48:23.393Z,12.80
2019-05-26T05:50:56.272Z,11.65
2019-05-26T05:53:29.355Z,11.53
2019-05-26T05:56:01.119Z,11.68
2019-05-26T05:58:32.434Z,13.48
2019-05-26T06:01:04.123Z,10.78
2019-05-26T06:03:36.970Z,11.85
2019-05-26T06:06:10.197Z,11.68
2019-05-26T06:08:43.044Z,12.80
2019-05-26T06:11:17.453Z,13.80
2019-05-26T06:13:50.682Z,12.33
2019-05-26T06:16:27.040Z,12.53
2019-05-26T06:19:01.764Z,11.78
2019-05-26T06:21:33.118Z,11.08
2019-05-26T06:24:06.821Z,11.75
2019-05-26T06:29:09.217Z,11.75
2019-05-26T06:31:41.988Z,11.83
2019-05-26T06:34:13.744Z,12.18
2019-05-26T06:36:45.936Z,11.43
2019-05-26T06:39:18.689Z,11.90
2019-05-26T06:41:50.037Z,10.43
2019-05-26T06:44:21.838Z,11.10
2019-05-26T06:46:56.116Z,11.15
2019-05-26T06:49:28.788Z,10.45
2019-05-26T06:52:00.349Z,10.85
2019-05-26T06:54:33.003Z,11.33
2019-05-26T06:57:04.878Z,10.10
2019-05-26T06:59:37.773Z,9.70
2019-05-26T07:02:11.759Z,10.85
2019-05-26T07:04:44.155Z,11.90
2019-05-26T07:07:19.501Z,12.00
2019-05-26T07:09:51.849Z,12.30
2019-05-26T07:12:25.349Z,10.90
2019-05-26T07:14:59.976Z,12.47
2019-05-26T07:17:31.836Z,11.90
2019-05-26T07:20:07.375Z,10.40
2019-05-26T07:22:38.720Z,9.88
2019-05-26T07:25:10.958Z,9.68
2019-05-26T07:27:43.770Z,8.30
2019-05-26T07:30:17.373Z,8.98
2019-05-26T07:32:50.564Z,8.20
2019-05-26T07:35:23.162Z,7.80
2019-05-26T07:37:57.443Z,7.83
2019-05-26T07:40:28.630Z,7.15
2019-05-26T07:45:35.900Z,6.97
2019-05-26T07:48:08.366Z,6.92
2019-05-26T07:50:43.520Z,6.80
2019-05-26T07:53:16.076Z,7.03
2019-05-26T07:55:49.475Z,7.60
2019-05-26T07:58:23.379Z,7.37
2019-05-26T08:00:55.356Z,7.15
2019-05-26T08:03:27.204Z,6.90
2019-05-26T08:06:00.600Z,6.20
2019-05-26T08:08:33.176Z,7.10
2019-05-26T08:11:05.240Z,6.40
2019-05-26T08:13:38.833Z,8.80
2019-05-26T08:16:10.101Z,6.47
2019-05-26T08:18:44.116Z,6.17
2019-05-26T08:21:16.664Z,6.17
2019-05-26T08:23:52.416Z,5.80
2019-05-26T08:26:25.102Z,5.67
2019-05-26T08:28:58.525Z,5.50
2019-05-26T08:31:31.421Z,5.70
2019-05-26T08:34:05.379Z,5.58
2019-05-26T08:36:37.479Z,5.45
2019-05-26T08:39:09.821Z,6.35
2019-05-26T08:41:41.367Z,6.45
2019-05-26T08:44:14.049Z,5.97
2019-05-26T08:46:47.944Z,6.42
2019-05-26T08:49:19.302Z,6.65
2019-05-26T08:51:50.693Z,6.12
2019-05-26T08:54:23.839Z,6.65
2019-05-26T08:56:55.387Z,6.08
2019-05-26T09:02:01.974Z,5.87
2019-05-26T09:04:35.472Z,5.80
2019-05-26T09:07:09.411Z,6.00
2019-05-26T09:09:42.363Z,5.45
2019-05-26T09:12:14.837Z,5.70
2019-05-26T09:14:46.239Z,6.50
2019-05-26T09:17:18.968Z,5.95
2019-05-26T09:19:52.462Z,6.40
2019-05-26T09:22:24.076Z,5.80
2019-05-26T09:24:59.555Z,5.65
2019-05-26T09:27:32.453Z,5.42
2019-05-26T09:30:06.047Z,7.10
2019-05-26T09:32:38.417Z,9.08
2019-05-26T09:35:10.888Z,13.30
2019-05-26T09:37:44.386Z,16.12
2019-05-26T09:40:16.220Z,14.68
2019-05-26T09:42:50.054Z,24.43
2019-05-26T09:45:23.036Z,16.10
2019-05-26T09:47:57.846Z,13.30
2019-05-26T09:50:29.246Z,9.78
2019-05-26T09:53:02.714Z,9.50
2019-05-26T09:55:37.130Z,11.25
2019-05-26T09:58:09.391Z,11.20
2019-05-26T10:00:43.503Z,11.85
2019-05-26T10:03:16.693Z,10.90
2019-05-26T10:05:50.396Z,10.72
2019-05-26T10:08:22.595Z,10.40
2019-05-26T10:10:58.119Z,9.90
2019-05-26T10:13:32.051Z,8.85
2019-05-26T10:16:04.570Z,8.65
2019-05-26T10:18:40.135Z,7.70
2019-05-26T10:21:15.071Z,7.90
2019-05-26T10:23:46.725Z,7.33
2019-05-26T10:26:18.679Z,6.87
2019-05-26T10:28:50.540Z,6.80
2019-05-26T10:31:27.928Z,6.53
2019-05-26T10:34:00.713Z,5.08
2019-05-26T10:36:33.935Z,6.60
2019-05-26T10:39:08.333Z,6.28
2019-05-26T10:41:41.307Z,6.08
2019-05-26T10:44:13.151Z,5.85
2019-05-26T10:46:47.174Z,5.67
2019-05-26T10:49:19.935Z,6.03
2019-05-26T10:51:54.082Z,5.95
2019-05-26T10:54:28.588Z,6.28
2019-05-26T10:57:00.651Z,5.67
2019-05-26T10:59:35.179Z,5.50
2019-05-26T11:02:08.462Z,5.35
2019-05-26T11:04:40.115Z,6.30
2019-05-26T11:07:12.806Z,5.20
2019-05-26T11:09:45.279Z,6.10
2019-05-26T11:12:17.463Z,5.55
2019-05-26T11:14:52.470Z,5.20
2019-05-26T11:17:23.932Z,4.62
2019-05-26T11:22:28.045Z,6.55
2019-05-26T11:24:59.732Z,5.58
2019-05-26T11:27:31.659Z,5.35
2019-05-26T11:30:03.377Z,4.60
2019-05-26T11:32:35.682Z,4.67
2019-05-26T11:35:10.470Z,5.17
2019-05-26T11:37:41.758Z,5.00
2019-05-26T11:40:14.717Z,5.35
2019-05-26T11:42:46.095Z,5.75
2019-05-26T11:45:20.246Z,6.65
2019-05-26T11:47:51.854Z,6.00
2019-05-26T11:50:23.467Z,6.35
2019-05-26T11:52:56.847Z,6.33
2019-05-26T11:55:29.077Z,6.28
2019-05-26T11:58:01.653Z,6.22
2019-05-26T12:00:33.506Z,5.65
2019-05-26T12:03:08.262Z,6.77
2019-05-26T12:08:10.827Z,7.50
2019-05-26T12:10:46.681Z,6.90
2019-05-26T12:13:18.371Z,5.75
2019-05-26T12:15:50.234Z,5.50
2019-05-26T12:18:22.389Z,5.10
2019-05-26T12:20:54.378Z,5.33
2019-05-26T12:23:26.897Z,6.10
2019-05-26T12:25:58.692Z,4.55
2019-05-26T12:28:31.126Z,4.80
2019-05-26T12:31:02.594Z,5.70
2019-05-26T12:33:34.344Z,5.58
2019-05-26T12:36:06.805Z,5.90
2019-05-26T12:38:39.536Z,5.67
2019-05-26T12:41:12.045Z,5.62
2019-05-26T12:43:43.404Z,6.15
2019-05-26T12:46:17.217Z,6.33
2019-05-26T12:48:49.651Z,6.70
2019-05-26T12:51:21.953Z,7.53
2019-05-26T12:53:54.659Z,7.12
2019-05-26T12:56:28.677Z,7.20
2019-05-26T13:01:34.816Z,6.70
2019-05-26T13:04:10.101Z,23.70
2019-05-26T13:06:41.606Z,22.22
2019-05-26T13:09:15.337Z,20.60
2019-05-26T13:11:47.993Z,14.15
2019-05-26T13:14:21.590Z,10.40
2019-05-26T13:16:56.408Z,12.65
2019-05-26T13:19:31.769Z,19.67
2019-05-26T13:22:03.201Z,15.28
2019-05-26T13:24:37.315Z,9.23
2019-05-26T13:27:12.558Z,8.25
2019-05-26T13:29:44.208Z,7.62
2019-05-26T13:32:18.017Z,6.30
2019-05-26T13:34:50.385Z,7.15
2019-05-26T13:37:22.341Z,6.00
2019-05-26T13:39:54.103Z,5.62
2019-05-26T13:42:25.253Z,6.53
2019-05-26T13:44:56.753Z,6.05
2019-05-26T13:47:29.161Z,7.47
2019-05-26T13:50:00.718Z,7.03
2019-05-26T13:52:36.517Z,7.58
2019-05-26T13:55:10.277Z,8.10
2019-05-26T13:57:41.626Z,7.65
2019-05-26T14:00:17.686Z,6.87
2019-05-26T14:02:50.471Z,7.62
2019-05-26T14:05:22.827Z,7.78
2019-05-26T14:07:55.516Z,9.80
2019-05-26T14:10:33.031Z,8.65
2019-05-26T14:13:06.235Z,8.90
2019-05-26T14:15:39.180Z,10.60
2019-05-26T14:18:12.365Z,11.18
2019-05-26T14:20:44.130Z,13.48
2019-05-26T14:23:16.579Z,8.95
2019-05-26T14:25:52.142Z,9.95
2019-05-26T14:28:27.867Z,12.23
2019-05-26T14:31:00.347Z,11.37
2019-05-26T14:36:07.958Z,7.63
2019-05-26T14:38:43.462Z,9.15
2019-05-26T14:41:15.929Z,7.67
2019-05-26T14:43:47.437Z,8.55
2019-05-26T14:46:19.299Z,8.90
2019-05-26T14:48:50.812Z,6.70
2019-05-26T14:51:23.986Z,9.68
2019-05-26T14:56:30.626Z,17.07
2019-05-26T14:59:03.515Z,20.27
2019-05-26T15:01:37.197Z,21.97
2019-05-26T15:04:11.113Z,21.73
2019-05-26T15:09:24.670Z,15.15
2019-05-26T15:11:46.387Z,14.70
2019-05-26T15:14:18.456Z,12.18
2019-05-26T15:16:50.826Z,15.00
2019-05-26T15:19:23.611Z,16.55
2019-05-26T15:21:57.510Z,17.23
2019-05-26T15:24:31.024Z,16.05
2019-05-26T15:27:05.124Z,18.55
2019-05-26T15:29:36.880Z,16.30
2019-05-26T15:32:10.381Z,14.28
2019-05-26T15:34:44.186Z,14.05
2019-05-26T15:37:16.677Z,13.13
2019-05-26T15:39:48.929Z,10.60
2019-05-26T15:42:20.680Z,9.50
2019-05-26T15:44:52.382Z,8.50
2019-05-26T15:47:26.033Z,11.20
2019-05-26T15:49:58.821Z,13.30
2019-05-26T15:52:31.803Z,10.72
2019-05-26T15:55:07.326Z,9.75
2019-05-26T15:57:39.099Z,9.78
2019-05-26T16:00:11.155Z,6.90
2019-05-26T16:02:42.617Z,6.53
2019-05-26T16:05:17.030Z,6.37
2019-05-26T16:07:49.811Z,6.60
2019-05-26T16:10:24.842Z,7.70
2019-05-26T16:12:56.301Z,7.37
2019-05-26T16:15:28.978Z,7.72
2019-05-26T16:18:02.470Z,7.70
2019-05-26T16:20:34.957Z,9.10
2019-05-26T16:23:09.127Z,9.28
2019-05-26T16:25:44.796Z,11.25
2019-05-26T16:30:48.450Z,13.93
2019-05-26T16:33:24.002Z,12.35
2019-05-26T16:35:57.169Z,13.90
2019-05-26T16:38:30.036Z,11.25
2019-05-26T16:41:02.823Z,12.40
2019-05-26T16:43:36.954Z,10.70
2019-05-26T16:46:08.619Z,9.23
2019-05-26T16:48:40.264Z,11.10
2019-05-26T16:51:14.367Z,9.83
2019-05-26T16:53:46.622Z,8.85
2019-05-26T16:56:20.459Z,10.15
2019-05-26T16:58:53.309Z,8.95
2019-05-26T17:01:27.080Z,10.53
2019-05-26T17:03:59.793Z,11.60
2019-05-26T17:06:35.445Z,13.22
2019-05-26T17:09:08.559Z,15.68
2019-05-26T17:11:40.085Z,12.03
2019-05-26T17:14:14.603Z,10.28
2019-05-26T17:16:47.340Z,10.78
2019-05-26T17:19:19.411Z,10.25
2019-05-26T17:21:52.037Z,10.15
2019-05-26T17:24:24.156Z,10.55
2019-05-26T17:26:55.739Z,10.78
2019-05-26T17:29:30.152Z,11.50
2019-05-26T17:32:01.726Z,12.47
2019-05-26T17:34:34.488Z,12.13
2019-05-26T17:37:08.497Z,14.45
2019-05-26T17:39:41.725Z,18.10
2019-05-26T17:42:15.601Z,21.15
2019-05-26T17:44:47.409Z,21.73
2019-05-26T17:47:29.668Z,21.37
2019-05-26T17:49:54.039Z,20.20
2019-05-26T17:52:26.430Z,20.77
2019-05-26T17:55:00.545Z,19.95
2019-05-26T17:57:32.831Z,18.95
2019-05-26T18:00:12.673Z,19.32
2019-05-26T18:02:44.323Z,21.37
2019-05-26T18:05:18.615Z,23.12
2019-05-26T18:07:50.469Z,22.48
2019-05-26T18:10:26.570Z,22.32
2019-05-26T18:12:59.305Z,20.88
2019-05-26T18:15:34.666Z,22.65
2019-05-26T18:18:08.452Z,22.32
2019-05-26T18:20:40.006Z,20.70
2019-05-26T18:23:12.839Z,20.62
2019-05-26T18:25:45.381Z,19.52
2019-05-26T18:28:18.083Z,18.65
2019-05-26T18:30:52.363Z,17.02
2019-05-26T18:33:24.935Z,13.32
2019-05-26T18:35:58.834Z,12.70
2019-05-26T18:38:32.131Z,12.93
2019-05-26T18:41:04.498Z,13.10
2019-05-26T18:43:35.848Z,14.60
2019-05-26T18:46:10.475Z,18.73
2019-05-26T18:48:42.840Z,16.82
2019-05-26T18:51:15.905Z,17.05
2019-05-26T18:53:48.301Z,18.35
2019-05-26T18:56:19.850Z,22.25
2019-05-26T18:58:54.733Z,27.40
2019-05-26T19:01:26.848Z,28.40
2019-05-26T19:06:33.229Z,31.82
2019-05-26T19:09:08.763Z,35.50
2019-05-26T19:11:41.551Z,43.13
2019-05-26T19:14:14.199Z,42.65
2019-05-26T19:16:47.407Z,46.20
2019-05-26T19:19:21.216Z,44.63
2019-05-26T19:21:52.678Z,42.85
2019-05-26T19:24:24.852Z,43.13
2019-05-26T19:26:56.804Z,41.15
2019-05-26T19:29:29.775Z,40.63
2019-05-26T19:32:05.648Z,39.92
2019-05-26T19:34:39.450Z,36.38
2019-05-26T19:37:12.111Z,34.25
2019-05-26T19:39:45.830Z,33.35
2019-05-26T19:42:21.023Z,31.33
2019-05-26T19:44:52.716Z,29.18
2019-05-26T19:50:00.527Z,29.77
2019-05-26T19:52:33.030Z,28.12
2019-05-26T19:55:09.058Z,23.25
2019-05-26T19:57:43.107Z,23.40
2019-05-26T20:00:17.145Z,21.75
2019-05-26T20:02:48.300Z,20.30
2019-05-26T20:05:22.534Z,20.40
2019-05-26T20:07:55.523Z,22.80
2019-05-26T20:10:29.021Z,20.60
2019-05-26T20:13:03.436Z,20.88
2019-05-26T20:15:34.697Z,20.45
2019-05-26T20:18:06.385Z,20.90
2019-05-26T20:20:39.217Z,21.80
2019-05-26T20:23:13.338Z,20.37
2019-05-26T20:25:49.161Z,21.02
2019-05-26T20:28:23.196Z,20.43
2019-05-26T20:30:58.844Z,20.30
2019-05-26T20:33:31.327Z,19.70
2019-05-26T20:36:03.312Z,20.10
2019-05-26T20:38:35.964Z,19.67
2019-05-26T20:41:08.221Z,19.73
2019-05-26T20:43:42.048Z,19.65
2019-05-26T20:46:14.705Z,17.87
2019-05-26T20:48:46.555Z,18.85
2019-05-26T20:51:19.549Z,18.87
2019-05-26T20:53:52.190Z,17.67
2019-05-26T20:56:23.778Z,17.45
2019-05-26T20:58:56.052Z,17.30
2019-05-26T21:01:28.626Z,17.37
2019-05-26T21:04:01.574Z,18.67
2019-05-26T21:06:34.398Z,18.27
2019-05-26T21:09:11.010Z,17.75
2019-05-26T21:11:43.549Z,17.65
2019-05-26T21:14:15.001Z,18.50
2019-05-26T21:16:49.712Z,19.10
2019-05-26T21:19:22.478Z,19.67
2019-05-26T21:21:55.070Z,19.17
2019-05-26T21:24:28.978Z,19.27
2019-05-26T21:27:00.865Z,20.02
2019-05-26T21:29:33.510Z,20.80
2019-05-26T21:32:06.402Z,18.75
2019-05-26T21:34:38.454Z,18.92
2019-05-26T21:37:12.963Z,18.87
2019-05-26T21:39:45.865Z,21.33
2019-05-26T21:44:51.418Z,22.30
2019-05-26T21:47:25.478Z,25.35
2019-05-26T21:50:00.159Z,23.10
2019-05-26T21:52:31.812Z,24.80
2019-05-26T21:55:06.852Z,23.50
2019-05-26T21:57:38.638Z,25.27
2019-05-26T22:00:17.426Z,28.62
2019-05-26T22:02:51.707Z,29.75
2019-05-26T22:05:24.621Z,29.55
2019-05-26T22:07:57.100Z,31.52
2019-05-26T22:10:28.959Z,32.77
2019-05-26T22:13:02.870Z,33.98
2019-05-26T22:15:34.826Z,33.48
2019-05-26T22:18:08.527Z,35.88
2019-05-26T22:20:42.025Z,36.07
2019-05-26T22:23:16.341Z,37.65
2019-05-26T22:25:48.091Z,33.73
2019-05-26T22:28:22.907Z,31.85
2019-05-26T22:30:57.137Z,30.55
2019-05-26T22:33:29.301Z,25.25
2019-05-26T22:36:03.877Z,25.27
2019-05-26T22:38:40.088Z,26.55
2019-05-26T22:41:13.231Z,28.60
2019-05-26T22:43:44.610Z,29.85
2019-05-26T22:46:19.453Z,31.50
2019-05-26T22:48:54.861Z,36.05
2019-05-26T22:51:26.572Z,38.20
2019-05-26T22:54:01.070Z,35.75
2019-05-26T22:56:36.661Z,34.40
2019-05-26T22:59:10.429Z,32.17
2019-05-26T23:01:42.080Z,35.78
2019-05-26T23:04:14.097Z,30.40
2019-05-26T23:06:49.242Z,26.95
2019-05-26T23:09:21.646Z,22.05
2019-05-26T23:11:53.401Z,21.90
2019-05-26T23:14:25.120Z,21.65
2019-05-26T23:16:57.189Z,18.80
2019-05-26T23:19:33.184Z,18.95
2019-05-26T23:22:05.183Z,20.40
2019-05-26T23:24:39.157Z,16.07
2019-05-26T23:27:12.130Z,15.60
2019-05-26T23:29:45.938Z,14.90
2019-05-26T23:32:17.394Z,14.00
2019-05-26T23:34:49.866Z,13.50
2019-05-26T23:37:21.566Z,12.88
2019-05-26T23:39:53.122Z,15.43
2019-05-26T23:42:27.214Z,15.78
2019-05-26T23:45:01.091Z,16.65
2019-05-26T23:47:33.965Z,20.23
2019-05-26T23:50:07.366Z,18.90
2019-05-26T23:52:39.231Z,20.92
2019-05-26T23:55:13.436Z,18.30
2019-05-26T23:57:47.542Z,13.68
